createdAt,value
2023-01-05T00:02:00.898Z,0
2023-01-05T00:11:38.207Z,0
2023-01-05T00:21:15.610Z,0
2023-01-05T00:30:53.149Z,0
2023-01-05T00:40:30.802Z,0
2023-01-05T00:50:08.258Z,0
2023-01-05T00:59:46.248Z,0
2023-01-05T01:09:23.914Z,0
2023-01-05T01:19:05.077Z,0
2023-01-05T01:28:38.945Z,0
2023-01-05T01:38:16.571Z,0
2023-01-05T01:47:54.185Z,0
2023-01-05T01:57:31.649Z,0
2023-01-05T02:07:08.927Z,0
2023-01-05T02:16:46.704Z,0
2023-01-05T02:26:23.594Z,0
2023-01-05T02:36:01.100Z,0
2023-01-05T02:45:37.816Z,0
2023-01-05T02:55:15.340Z,0
2023-01-05T03:04:52.989Z,0
2023-01-05T03:14:30.405Z,0
2023-01-05T03:24:07.849Z,0
2023-01-05T03:33:20.061Z,0
2023-01-05T03:42:57.308Z,0
2023-01-05T03:52:34.419Z,0
2023-01-05T04:02:11.237Z,0
2023-01-05T04:11:48.169Z,0
2023-01-05T04:21:24.945Z,0
2023-01-05T04:31:02.114Z,0
2023-01-05T04:40:39.460Z,0
2023-01-05T04:50:16.788Z,0
2023-01-05T04:59:54.103Z,0
2023-01-05T05:09:31.764Z,0
2023-01-05T05:19:08.409Z,0
2023-01-05T05:28:44.914Z,0
2023-01-05T05:38:21.645Z,0
2023-01-05T05:47:58.864Z,0
2023-01-05T05:57:35.632Z,0
2023-01-05T06:07:12.668Z,0
2023-01-05T06:16:49.591Z,0
2023-01-05T06:26:26.517Z,0
2023-01-05T06:36:03.692Z,0
2023-01-05T06:45:41.179Z,0
2023-01-05T06:55:18.235Z,0
2023-01-05T07:04:55.786Z,0
2023-01-05T07:14:32.954Z,5.63
2023-01-05T07:24:10.671Z,11.25
2023-01-05T07:33:47.933Z,16.88
2023-01-05T07:43:25.247Z,22.5
2023-01-05T07:53:02.485Z,33.75
2023-01-05T08:02:39.522Z,39.38
2023-01-05T08:12:16.464Z,39.38
2023-01-05T08:21:53.412Z,112.5
2023-01-05T08:31:30.872Z,95.63
2023-01-05T08:41:08.599Z,90
2023-01-05T08:50:46.144Z,123.75
2023-01-05T09:00:23.990Z,157.5
2023-01-05T09:10:02.679Z,174.38
2023-01-05T09:19:40.377Z,208.13
2023-01-05T09:29:19.014Z,163.13
2023-01-05T09:38:56.843Z,180
2023-01-05T09:48:34.839Z,264.38
2023-01-05T09:58:12.098Z,230.63
2023-01-05T10:07:51.592Z,281.25
2023-01-05T10:17:40.909Z,275.63
2023-01-05T10:27:25.365Z,298.13
2023-01-05T10:37:07.158Z,393.75
2023-01-05T10:46:35.307Z,264.38
2023-01-05T10:56:00.150Z,241.88
2023-01-05T11:05:38.159Z,433.13
2023-01-05T11:15:14.920Z,213.75
2023-01-05T11:24:52.485Z,326.25
2023-01-05T11:34:31.905Z,376.88
2023-01-05T11:44:07.636Z,270
2023-01-05T11:53:44.403Z,225
2023-01-05T12:03:22.182Z,292.5
2023-01-05T12:13:00.071Z,180
2023-01-05T12:22:33.816Z,95.63
2023-01-05T12:41:46.456Z,95.63
2023-01-05T12:51:22.861Z,129.38
2023-01-05T13:01:02.260Z,354.38
2023-01-05T13:10:45.995Z,933.75
2023-01-05T13:20:24.768Z,596.25
2023-01-05T13:29:57.296Z,303.75
2023-01-05T13:39:33.011Z,292.5
2023-01-05T13:49:12.805Z,331.88
2023-01-05T13:58:53.800Z,281.25
2023-01-05T14:08:37.067Z,1456.88
2023-01-05T14:18:08.287Z,309.38
2023-01-05T14:27:40.286Z,151.88
2023-01-05T14:37:13.837Z,50.63
2023-01-05T14:46:48.694Z,16.88
2023-01-05T14:56:24.819Z,5.63
2023-01-05T15:06:01.677Z,0
2023-01-05T15:15:40.706Z,0
2023-01-05T15:25:15.344Z,0
2023-01-05T15:34:52.194Z,0
2023-01-05T15:44:29.351Z,0
2023-01-05T15:54:06.566Z,0
2023-01-05T16:03:43.983Z,0
2023-01-05T16:13:21.126Z,0
2023-01-05T16:23:01.333Z,0
2023-01-05T16:32:34.895Z,0
2023-01-05T16:42:12.119Z,0
2023-01-05T16:51:48.740Z,0
2023-01-05T17:01:25.946Z,0
2023-01-05T17:11:02.498Z,0
2023-01-05T17:30:15.895Z,0
2023-01-05T17:39:53.051Z,0
2023-01-05T17:49:29.607Z,0
2023-01-05T17:59:06.269Z,0
2023-01-05T18:08:44.285Z,0
2023-01-05T18:18:21.346Z,0
2023-01-05T18:27:57.975Z,0
2023-01-05T18:37:35.070Z,0
2023-01-05T18:47:11.471Z,0
2023-01-05T18:56:48.144Z,0
2023-01-05T19:06:24.266Z,0
2023-01-05T19:16:01.471Z,0
2023-01-05T19:25:38.489Z,0
2023-01-05T19:35:16.866Z,0
2023-01-05T19:44:53.254Z,0
2023-01-05T19:54:30.284Z,0
2023-01-05T20:04:07.066Z,0
2023-01-05T20:13:43.656Z,0
2023-01-05T20:23:20.781Z,0
2023-01-05T20:32:58.392Z,0
2023-01-05T20:42:35.743Z,0
2023-01-05T20:52:13.385Z,0
2023-01-05T21:01:50.323Z,0
2023-01-05T21:11:27.536Z,0
2023-01-05T21:21:04.256Z,0
2023-01-05T21:30:41.398Z,0
2023-01-05T21:40:18.617Z,0
2023-01-05T21:49:55.976Z,0
2023-01-05T21:59:33.285Z,0
2023-01-05T22:09:10.660Z,0
2023-01-05T22:18:47.354Z,0
2023-01-05T22:28:24.599Z,0
2023-01-05T22:38:01.295Z,0
2023-01-05T22:47:38.093Z,0
2023-01-05T22:57:15.505Z,0
2023-01-05T23:06:52.819Z,0
2023-01-05T23:16:30.019Z,0
2023-01-05T23:26:07.176Z,0
2023-01-05T23:35:44.133Z,0
2023-01-05T23:45:21.426Z,0
2023-01-05T23:54:58.731Z,0
